createdAt,value
2022-10-26T00:01:26.872Z,3.22
2022-10-26T00:03:57.831Z,5.65
2022-10-26T00:06:28.945Z,10.77
2022-10-26T00:08:58.076Z,5.53
2022-10-26T00:11:26.573Z,2.10
2022-10-26T00:13:54.853Z,1.67
2022-10-26T00:16:27.864Z,2.63
2022-10-26T00:18:56.179Z,2.78
2022-10-26T00:21:24.439Z,2.00
2022-10-26T00:23:54.470Z,2.17
2022-10-26T00:26:22.742Z,2.28
2022-10-26T00:28:53.688Z,2.78
2022-10-26T00:31:22.041Z,3.53
2022-10-26T00:33:54.001Z,4.25
2022-10-26T00:36:22.294Z,3.17
2022-10-26T00:38:51.168Z,1.92
2022-10-26T00:41:21.009Z,1.80
2022-10-26T00:43:49.482Z,1.83
2022-10-26T00:46:21.663Z,2.28
2022-10-26T00:48:54.429Z,1.58
2022-10-26T00:51:30.326Z,1.17
2022-10-26T00:53:58.520Z,2.20
2022-10-26T00:56:26.802Z,3.00
2022-10-26T00:58:55.876Z,3.00
2022-10-26T01:01:24.117Z,1.50
2022-10-26T01:03:54.757Z,1.48
2022-10-26T01:06:23.283Z,1.47
2022-10-26T01:08:52.019Z,1.65
2022-10-26T01:11:20.696Z,1.85
2022-10-26T01:13:51.274Z,1.30
2022-10-26T01:16:39.474Z,1.53
2022-10-26T01:19:38.980Z,1.75
2022-10-26T01:22:12.887Z,1.95
2022-10-26T01:25:01.606Z,2.05
2022-10-26T01:27:33.320Z,3.42
2022-10-26T01:30:27.706Z,1.77
2022-10-26T01:33:31.048Z,1.25
2022-10-26T01:36:08.838Z,2.15
2022-10-26T01:38:45.075Z,2.00
2022-10-26T01:41:18.802Z,1.67
2022-10-26T01:43:52.579Z,1.83
2022-10-26T01:46:23.088Z,5.10
2022-10-26T01:48:54.824Z,1.50
2022-10-26T01:51:23.646Z,1.30
2022-10-26T01:53:52.059Z,2.28
2022-10-26T01:56:23.688Z,0.88
2022-10-26T02:02:05.117Z,2.45
2022-10-26T02:04:43.270Z,2.55
2022-10-26T02:07:19.584Z,1.27
2022-10-26T02:09:58.203Z,1.92
2022-10-26T02:12:34.296Z,1.55
2022-10-26T02:15:07.894Z,2.05
2022-10-26T02:17:47.254Z,1.52
2022-10-26T02:20:21.544Z,1.90
2022-10-26T02:22:52.586Z,1.25
2022-10-26T02:25:24.754Z,1.35
2022-10-26T02:27:56.974Z,2.15
2022-10-26T02:30:25.190Z,1.70
2022-10-26T02:32:58.296Z,2.42
2022-10-26T02:35:31.094Z,1.13
2022-10-26T02:38:02.016Z,1.05
2022-10-26T02:40:31.947Z,1.90
2022-10-26T02:43:05.867Z,1.85
2022-10-26T02:45:39.667Z,1.48
2022-10-26T02:48:09.487Z,1.67
2022-10-26T02:50:50.757Z,1.35
2022-10-26T02:53:25.554Z,1.20
2022-10-26T02:55:54.128Z,2.00
2022-10-26T02:58:26.279Z,4.00
2022-10-26T03:00:55.331Z,3.78
2022-10-26T03:03:25.249Z,5.60
2022-10-26T03:05:53.923Z,4.28
2022-10-26T03:08:22.172Z,5.18
2022-10-26T03:10:50.567Z,6.95
2022-10-26T03:13:18.822Z,7.72
2022-10-26T03:15:47.131Z,5.15
2022-10-26T03:18:15.368Z,5.50
2022-10-26T03:20:47.050Z,6.18
2022-10-26T03:23:15.464Z,7.72
2022-10-26T03:25:43.804Z,7.32
2022-10-26T03:28:12.020Z,10.93
2022-10-26T03:30:41.154Z,7.63
2022-10-26T03:33:09.907Z,9.27
2022-10-26T03:35:38.079Z,11.65
2022-10-26T03:38:07.709Z,7.63
2022-10-26T03:40:36.716Z,7.90
2022-10-26T03:43:05.247Z,8.20
2022-10-26T03:45:33.714Z,6.70
2022-10-26T03:48:02.797Z,6.75
2022-10-26T03:50:31.104Z,6.50
2022-10-26T03:52:59.426Z,7.13
2022-10-26T03:55:29.053Z,8.38
2022-10-26T03:57:57.266Z,7.88
2022-10-26T04:00:25.523Z,7.82
2022-10-26T04:02:57.014Z,7.65
2022-10-26T04:05:25.665Z,7.28
2022-10-26T04:07:55.299Z,7.47
2022-10-26T04:10:24.216Z,5.80
2022-10-26T04:12:53.989Z,7.80
2022-10-26T04:15:23.272Z,8.70
2022-10-26T04:17:57.425Z,6.97
2022-10-26T04:20:26.367Z,6.53
2022-10-26T04:23:01.687Z,6.72
2022-10-26T04:25:32.848Z,6.28
2022-10-26T04:28:04.405Z,7.72
2022-10-26T04:30:33.511Z,8.80
2022-10-26T04:33:01.872Z,8.88
2022-10-26T04:35:30.560Z,7.68
2022-10-26T04:38:00.273Z,8.82
2022-10-26T04:40:28.928Z,6.85
2022-10-26T04:42:57.666Z,8.30
2022-10-26T04:45:30.820Z,4.53
2022-10-26T04:48:03.955Z,5.65
2022-10-26T04:50:33.110Z,5.65
2022-10-26T04:53:01.812Z,5.07
2022-10-26T04:55:30.006Z,3.42
2022-10-26T04:58:01.067Z,4.43
2022-10-26T05:00:32.983Z,3.65
2022-10-26T05:03:02.145Z,4.75
2022-10-26T05:05:31.761Z,3.10
2022-10-26T05:08:00.548Z,2.80
2022-10-26T05:10:29.339Z,3.83
2022-10-26T05:12:59.552Z,2.15
2022-10-26T05:15:28.640Z,2.90
2022-10-26T05:17:59.623Z,2.63
2022-10-26T05:20:31.151Z,2.50
2022-10-26T05:25:28.419Z,2.00
2022-10-26T05:28:01.468Z,4.05
2022-10-26T05:30:30.809Z,1.63
2022-10-26T05:33:02.293Z,2.33
2022-10-26T05:35:30.817Z,2.47
2022-10-26T05:37:59.630Z,2.60
2022-10-26T05:40:27.967Z,1.50
2022-10-26T05:43:02.540Z,2.22
2022-10-26T05:45:31.376Z,1.90
2022-10-26T05:48:02.956Z,4.60
2022-10-26T05:50:31.753Z,3.78
2022-10-26T05:52:59.969Z,4.97
2022-10-26T05:55:29.219Z,5.20
2022-10-26T05:57:58.095Z,4.15
2022-10-26T06:00:28.483Z,5.90
2022-10-26T06:03:13.740Z,3.97
2022-10-26T06:05:52.286Z,3.67
2022-10-26T06:08:21.327Z,4.72
2022-10-26T06:10:49.966Z,2.15
2022-10-26T06:13:18.876Z,3.22
2022-10-26T06:16:00.400Z,4.28
2022-10-26T06:18:39.116Z,2.35
2022-10-26T06:21:21.695Z,3.90
2022-10-26T06:23:56.446Z,3.92
2022-10-26T06:26:35.737Z,4.03
2022-10-26T06:29:14.233Z,2.85
2022-10-26T06:31:42.485Z,10.23
2022-10-26T06:34:13.956Z,4.07
2022-10-26T06:36:43.201Z,3.58
2022-10-26T06:39:13.717Z,3.60
2022-10-26T06:41:42.408Z,3.58
2022-10-26T06:44:14.057Z,4.22
2022-10-26T06:49:24.400Z,4.32
2022-10-26T06:51:58.147Z,3.92
2022-10-26T06:54:32.856Z,2.10
2022-10-26T06:57:01.998Z,2.70
2022-10-26T06:59:38.012Z,3.13
2022-10-26T07:02:06.772Z,3.72
2022-10-26T07:04:36.688Z,1.50
2022-10-26T07:07:05.321Z,2.67
2022-10-26T07:09:33.727Z,1.98
2022-10-26T07:12:02.240Z,3.15
2022-10-26T07:14:30.512Z,3.05
2022-10-26T07:16:58.704Z,2.85
2022-10-26T07:19:26.874Z,3.08
2022-10-26T07:21:59.296Z,2.78
2022-10-26T07:24:27.839Z,3.30
2022-10-26T07:26:56.969Z,2.17
2022-10-26T07:29:26.129Z,2.72
2022-10-26T07:31:54.972Z,1.65
2022-10-26T07:34:23.188Z,1.80
2022-10-26T07:36:51.943Z,2.85
2022-10-26T07:39:21.961Z,2.67
2022-10-26T07:41:50.150Z,1.63
2022-10-26T07:44:18.363Z,2.90
2022-10-26T07:46:46.704Z,1.83
2022-10-26T07:49:17.650Z,1.98
2022-10-26T07:51:47.887Z,2.20
2022-10-26T07:54:16.110Z,2.83
2022-10-26T07:56:45.679Z,4.05
2022-10-26T07:59:14.031Z,2.70
2022-10-26T08:01:42.257Z,4.07
2022-10-26T08:04:10.471Z,5.22
2022-10-26T08:06:39.035Z,2.53
2022-10-26T08:09:07.384Z,3.90
2022-10-26T08:11:37.108Z,3.10
2022-10-26T08:14:07.048Z,1.90
2022-10-26T08:16:35.946Z,1.90
2022-10-26T08:19:04.178Z,1.75
2022-10-26T08:21:40.504Z,3.80
2022-10-26T08:24:10.015Z,2.03
2022-10-26T08:26:38.355Z,2.97
2022-10-26T08:29:08.031Z,1.60
2022-10-26T08:31:36.489Z,2.08
2022-10-26T08:34:05.595Z,3.30
2022-10-26T08:36:33.897Z,2.33
2022-10-26T08:39:02.035Z,2.35
2022-10-26T08:41:37.536Z,2.55
2022-10-26T08:44:19.713Z,2.92
2022-10-26T08:46:51.800Z,3.50
2022-10-26T08:49:24.381Z,2.80
2022-10-26T08:51:56.122Z,2.92
2022-10-26T08:54:31.578Z,2.72
2022-10-26T08:57:02.033Z,2.47
2022-10-26T08:59:37.160Z,2.83
2022-10-26T09:02:11.463Z,2.40
2022-10-26T09:04:39.693Z,3.30
2022-10-26T09:07:17.295Z,1.73
2022-10-26T09:09:55.065Z,2.58
2022-10-26T09:12:33.237Z,2.78
2022-10-26T09:15:15.776Z,3.38
2022-10-26T09:17:53.469Z,2.17
2022-10-26T09:20:40.344Z,2.58
2022-10-26T09:23:20.598Z,3.35
2022-10-26T09:25:59.875Z,2.35
2022-10-26T09:28:31.089Z,3.10
2022-10-26T09:31:02.750Z,2.55
2022-10-26T09:36:03.424Z,2.55
2022-10-26T09:38:33.613Z,2.13
2022-10-26T09:41:07.211Z,2.72
2022-10-26T09:43:41.571Z,3.03
2022-10-26T09:46:17.135Z,3.03
2022-10-26T09:48:49.876Z,1.85
2022-10-26T09:51:18.747Z,4.28
2022-10-26T09:53:47.427Z,3.13
2022-10-26T09:56:16.327Z,3.33
2022-10-26T09:58:49.665Z,3.17
2022-10-26T10:01:35.460Z,4.00
2022-10-26T10:04:17.883Z,2.70
2022-10-26T10:06:47.829Z,2.58
2022-10-26T10:09:18.107Z,4.13
2022-10-26T10:11:54.951Z,3.03
2022-10-26T10:14:24.654Z,4.05
2022-10-26T10:16:56.739Z,3.08
2022-10-26T10:19:27.727Z,3.05
2022-10-26T10:21:58.093Z,2.38
2022-10-26T10:24:29.052Z,3.58
2022-10-26T10:27:02.819Z,3.75
2022-10-26T10:29:34.077Z,4.60
2022-10-26T10:32:05.371Z,3.45
2022-10-26T10:34:36.233Z,2.88
2022-10-26T10:37:05.351Z,2.38
2022-10-26T10:39:40.650Z,3.78
2022-10-26T10:42:22.055Z,3.45
2022-10-26T10:44:55.206Z,2.95
2022-10-26T10:47:27.783Z,4.18
2022-10-26T10:49:59.691Z,2.80
2022-10-26T10:52:30.861Z,2.08
2022-10-26T10:55:19.484Z,1.85
2022-10-26T10:58:09.290Z,2.28
2022-10-26T11:00:39.041Z,2.35
2022-10-26T11:03:42.315Z,2.92
2022-10-26T11:06:17.231Z,2.47
2022-10-26T11:08:50.928Z,1.92
2022-10-26T11:11:22.814Z,2.78
2022-10-26T11:13:56.512Z,1.85
2022-10-26T11:16:29.196Z,2.50
2022-10-26T11:19:03.096Z,2.65
2022-10-26T11:21:33.784Z,3.90
2022-10-26T11:24:13.309Z,2.42
2022-10-26T11:26:46.877Z,1.75
2022-10-26T11:29:25.119Z,2.13
2022-10-26T11:31:58.729Z,2.08
2022-10-26T11:34:35.428Z,1.08
2022-10-26T11:37:11.038Z,1.65
2022-10-26T11:39:45.970Z,2.40
2022-10-26T11:42:26.013Z,2.08
2022-10-26T11:45:00.741Z,2.10
2022-10-26T11:47:36.780Z,3.08
2022-10-26T11:50:17.645Z,1.35
2022-10-26T11:52:51.447Z,1.48
2022-10-26T11:55:21.783Z,1.77
2022-10-26T11:57:52.684Z,2.67
2022-10-26T12:02:54.587Z,1.83
2022-10-26T12:05:35.855Z,2.35
2022-10-26T12:08:11.176Z,2.35
2022-10-26T12:10:42.966Z,1.85
2022-10-26T12:13:19.552Z,2.55
2022-10-26T12:16:02.966Z,2.13
2022-10-26T12:18:56.663Z,1.98
2022-10-26T12:21:29.697Z,6.40
2022-10-26T12:24:00.326Z,2.22
2022-10-26T12:26:53.117Z,2.35
2022-10-26T12:29:49.304Z,2.13
2022-10-26T12:32:52.046Z,3.85
2022-10-26T12:35:40.449Z,1.88
2022-10-26T12:38:38.338Z,1.98
2022-10-26T12:41:20.859Z,2.35
2022-10-26T12:43:49.675Z,2.72
2022-10-26T12:46:39.604Z,1.65
2022-10-26T12:49:54.557Z,1.65
2022-10-26T12:52:44.865Z,2.70
2022-10-26T12:55:49.207Z,2.07
2022-10-26T12:59:06.065Z,1.48
2022-10-26T13:02:23.210Z,2.58
2022-10-26T13:05:37.321Z,1.52
2022-10-26T13:08:08.305Z,2.35
2022-10-26T13:10:38.802Z,1.15
2022-10-26T13:13:09.378Z,2.65
2022-10-26T13:15:41.589Z,1.23
2022-10-26T13:18:12.703Z,1.10
2022-10-26T13:20:59.652Z,1.65
2022-10-26T13:23:30.033Z,1.83
2022-10-26T13:26:09.496Z,1.60
2022-10-26T13:28:50.213Z,1.60
2022-10-26T13:32:01.261Z,1.30
2022-10-26T13:34:32.974Z,1.58
2022-10-26T13:37:08.817Z,1.85
2022-10-26T13:39:39.342Z,3.30
2022-10-26T13:42:11.355Z,1.85
2022-10-26T13:44:43.558Z,2.17
2022-10-26T13:47:16.340Z,1.92
2022-10-26T13:49:48.992Z,2.10
2022-10-26T13:52:23.996Z,2.03
2022-10-26T13:54:59.013Z,1.95
2022-10-26T13:57:34.298Z,3.55
2022-10-26T14:00:09.173Z,1.45
2022-10-26T14:02:43.749Z,2.30
2022-10-26T14:05:15.096Z,2.88
2022-10-26T14:07:47.174Z,1.73
2022-10-26T14:10:27.473Z,1.48
2022-10-26T14:12:55.935Z,3.08
2022-10-26T14:15:28.075Z,2.08
2022-10-26T14:17:57.651Z,2.58
2022-10-26T14:20:29.216Z,1.75
2022-10-26T14:22:57.653Z,1.55
2022-10-26T14:25:41.671Z,1.88
2022-10-26T14:28:24.233Z,2.17
2022-10-26T14:30:52.802Z,1.70
2022-10-26T14:33:26.859Z,1.83
2022-10-26T14:35:57.271Z,2.65
2022-10-26T14:38:27.677Z,1.60
2022-10-26T14:40:58.634Z,4.03
2022-10-26T14:43:28.246Z,4.60
2022-10-26T14:45:57.418Z,4.82
2022-10-26T14:48:30.114Z,3.05
2022-10-26T14:51:07.326Z,2.45
2022-10-26T14:53:38.872Z,1.60
2022-10-26T14:56:18.931Z,3.05
2022-10-26T14:58:47.352Z,2.90
2022-10-26T15:01:28.337Z,3.22
2022-10-26T15:04:00.227Z,3.00
2022-10-26T15:06:47.818Z,4.03
2022-10-26T15:09:34.654Z,2.28
2022-10-26T15:12:05.453Z,3.70
2022-10-26T15:17:04.324Z,1.58
2022-10-26T15:19:32.803Z,2.47
2022-10-26T15:22:02.484Z,2.55
2022-10-26T15:24:37.614Z,2.28
2022-10-26T15:27:16.074Z,2.35
2022-10-26T15:29:46.303Z,2.00
2022-10-26T15:32:35.751Z,4.18
2022-10-26T15:35:31.778Z,2.85
2022-10-26T15:38:02.243Z,3.05
2022-10-26T15:40:32.524Z,3.63
2022-10-26T15:43:02.369Z,2.97
2022-10-26T15:45:34.988Z,3.92
2022-10-26T15:48:19.479Z,2.67
2022-10-26T15:50:47.720Z,2.67
2022-10-26T15:53:21.454Z,3.03
2022-10-26T15:55:50.693Z,3.58
2022-10-26T15:58:19.392Z,2.30
2022-10-26T16:00:47.890Z,4.15
2022-10-26T16:03:20.469Z,3.35
2022-10-26T16:05:50.322Z,5.15
2022-10-26T16:08:20.721Z,2.90
2022-10-26T16:10:51.122Z,4.63
2022-10-26T16:13:19.564Z,3.00
2022-10-26T16:15:47.847Z,3.35
2022-10-26T16:18:16.446Z,5.10
2022-10-26T16:20:47.274Z,3.88
2022-10-26T16:23:16.040Z,4.00
2022-10-26T16:25:47.289Z,5.25
2022-10-26T16:28:18.097Z,4.75
2022-10-26T16:30:46.542Z,3.97
2022-10-26T16:33:15.211Z,5.95
2022-10-26T16:35:43.611Z,4.57
2022-10-26T16:38:12.680Z,4.75
2022-10-26T16:40:43.791Z,9.32
2022-10-26T16:43:13.879Z,3.33
2022-10-26T16:45:43.152Z,6.07
2022-10-26T16:48:16.025Z,4.68
2022-10-26T16:50:44.390Z,6.00
2022-10-26T16:53:12.686Z,6.78
2022-10-26T16:58:09.694Z,4.30
2022-10-26T17:00:39.663Z,4.40
2022-10-26T17:03:07.932Z,5.53
2022-10-26T17:05:36.231Z,3.42
2022-10-26T17:08:04.508Z,6.45
2022-10-26T17:10:33.687Z,6.18
2022-10-26T17:13:03.977Z,5.80
2022-10-26T17:15:35.177Z,5.28
2022-10-26T17:18:08.607Z,5.50
2022-10-26T17:20:37.852Z,5.57
2022-10-26T17:23:07.012Z,7.20
2022-10-26T17:25:38.486Z,4.07
2022-10-26T17:28:06.791Z,5.65
2022-10-26T17:30:36.211Z,6.38
2022-10-26T17:33:05.991Z,4.50
2022-10-26T17:35:35.179Z,5.35
2022-10-26T17:38:04.334Z,4.68
2022-10-26T17:40:33.524Z,5.97
2022-10-26T17:43:02.475Z,4.53
2022-10-26T17:45:30.764Z,6.70
2022-10-26T17:47:58.990Z,5.70
2022-10-26T17:50:30.422Z,6.95
2022-10-26T17:52:59.683Z,5.30
2022-10-26T17:55:29.252Z,5.13
2022-10-26T17:57:58.446Z,4.68
2022-10-26T18:00:26.882Z,4.25
2022-10-26T18:05:25.982Z,5.40
2022-10-26T18:07:56.084Z,5.95
2022-10-26T18:10:37.612Z,8.50
2022-10-26T18:15:37.115Z,4.03
2022-10-26T18:18:05.548Z,5.47
2022-10-26T18:20:35.195Z,6.30
2022-10-26T18:23:05.556Z,4.30
2022-10-26T18:25:34.023Z,4.68
2022-10-26T18:28:02.501Z,7.50
2022-10-26T18:30:30.962Z,5.70
2022-10-26T18:32:59.424Z,5.13
2022-10-26T18:35:27.817Z,6.93
2022-10-26T18:37:56.102Z,6.63
2022-10-26T18:40:26.765Z,5.25
2022-10-26T18:42:54.997Z,5.43
2022-10-26T18:45:23.164Z,8.63
2022-10-26T18:47:51.777Z,5.35
2022-10-26T18:50:20.426Z,6.78
2022-10-26T18:52:49.214Z,6.10
2022-10-26T18:55:17.561Z,5.78
2022-10-26T18:57:47.823Z,5.13
2022-10-26T19:00:16.613Z,5.20
2022-10-26T19:02:47.490Z,6.30
2022-10-26T19:05:20.039Z,8.43
2022-10-26T19:07:48.483Z,5.75
2022-10-26T19:10:16.844Z,8.25
2022-10-26T19:12:46.479Z,4.78
2022-10-26T19:15:14.703Z,4.95
2022-10-26T19:17:42.962Z,9.25
2022-10-26T19:20:12.978Z,5.70
2022-10-26T19:22:41.609Z,5.40
2022-10-26T19:25:10.931Z,6.35
2022-10-26T19:27:39.218Z,5.57
2022-10-26T19:30:11.192Z,8.60
2022-10-26T19:32:39.861Z,5.65
2022-10-26T19:35:08.560Z,5.78
2022-10-26T19:37:36.848Z,6.25
2022-10-26T19:40:06.214Z,4.40
2022-10-26T19:42:34.632Z,7.95
2022-10-26T19:45:03.176Z,5.80
2022-10-26T19:47:33.534Z,13.23
2022-10-26T19:50:01.713Z,6.15
2022-10-26T19:52:29.967Z,7.47
2022-10-26T19:54:58.343Z,9.23
2022-10-26T19:57:27.022Z,6.18
2022-10-26T19:59:55.305Z,5.22
2022-10-26T20:02:23.569Z,8.38
2022-10-26T20:04:54.288Z,6.53
2022-10-26T20:07:23.243Z,5.90
2022-10-26T20:09:52.643Z,4.82
2022-10-26T20:12:21.297Z,9.55
2022-10-26T20:14:49.495Z,4.03
2022-10-26T20:17:17.724Z,5.45
2022-10-26T20:19:45.924Z,6.97
2022-10-26T20:22:15.507Z,5.70
2022-10-26T20:24:44.112Z,6.88
2022-10-26T20:27:12.275Z,6.88
2022-10-26T20:29:40.483Z,8.52
2022-10-26T20:32:10.727Z,4.90
2022-10-26T20:34:41.421Z,4.38
2022-10-26T20:37:14.243Z,6.18
2022-10-26T20:39:45.087Z,4.63
2022-10-26T20:42:24.685Z,3.65
2022-10-26T20:45:02.290Z,6.25
2022-10-26T20:47:31.034Z,4.63
2022-10-26T20:49:59.910Z,4.70
2022-10-26T20:52:38.513Z,6.22
2022-10-26T20:55:17.744Z,6.65
2022-10-26T20:57:53.803Z,6.78
2022-10-26T21:00:22.741Z,9.07
2022-10-26T21:02:51.826Z,5.38
2022-10-26T21:05:21.080Z,6.25
2022-10-26T21:07:49.345Z,9.43
2022-10-26T21:10:19.638Z,5.20
2022-10-26T21:12:48.308Z,8.45
2022-10-26T21:15:17.247Z,5.63
2022-10-26T21:17:45.708Z,4.95
2022-10-26T21:20:13.941Z,8.23
2022-10-26T21:22:42.139Z,6.38
2022-10-26T21:25:11.698Z,7.80
2022-10-26T21:27:41.308Z,7.70
2022-10-26T21:30:11.329Z,4.35
2022-10-26T21:32:39.855Z,9.57
2022-10-26T21:35:08.665Z,6.97
2022-10-26T21:37:36.905Z,5.57
2022-10-26T21:40:05.599Z,7.85
2022-10-26T21:42:33.864Z,4.45
2022-10-26T21:45:03.960Z,4.75
2022-10-26T21:47:32.556Z,7.20
2022-10-26T21:50:00.776Z,8.93
2022-10-26T21:52:28.995Z,4.28
2022-10-26T21:54:57.184Z,5.15
2022-10-26T21:57:25.528Z,6.20
2022-10-26T21:59:53.811Z,4.78
2022-10-26T22:02:23.445Z,5.38
2022-10-26T22:04:51.650Z,5.13
2022-10-26T22:07:20.070Z,6.40
2022-10-26T22:10:00.651Z,6.03
2022-10-26T22:12:36.798Z,6.45
2022-10-26T22:15:05.545Z,3.92
2022-10-26T22:17:38.501Z,7.55
2022-10-26T22:20:08.052Z,4.97
2022-10-26T22:22:36.246Z,10.10
2022-10-26T22:25:05.793Z,6.05
2022-10-26T22:27:34.564Z,11.25
2022-10-26T22:30:02.794Z,4.60
2022-10-26T22:32:31.963Z,4.68
2022-10-26T22:37:49.823Z,3.97
2022-10-26T22:40:18.222Z,5.18
2022-10-26T22:42:46.494Z,3.78
2022-10-26T22:45:14.946Z,6.93
2022-10-26T22:47:43.200Z,6.90
2022-10-26T22:50:13.002Z,6.38
2022-10-26T22:52:42.112Z,5.22
2022-10-26T22:55:10.531Z,5.65
2022-10-26T22:57:38.768Z,4.10
2022-10-26T23:00:08.630Z,5.72
2022-10-26T23:02:36.848Z,4.85
2022-10-26T23:05:05.852Z,8.13
2022-10-26T23:07:35.646Z,5.40
2022-10-26T23:10:04.230Z,4.88
2022-10-26T23:12:32.930Z,4.63
2022-10-26T23:15:01.608Z,5.68
2022-10-26T23:17:29.992Z,3.78
2022-10-26T23:19:58.326Z,5.45
2022-10-26T23:22:26.639Z,4.25
2022-10-26T23:24:56.194Z,4.65
2022-10-26T23:27:24.433Z,6.13
2022-10-26T23:29:52.595Z,6.90
2022-10-26T23:32:20.985Z,4.88
2022-10-26T23:34:49.202Z,3.25
2022-10-26T23:37:19.538Z,4.50
2022-10-26T23:39:47.755Z,5.03
2022-10-26T23:42:17.378Z,4.18
2022-10-26T23:44:45.636Z,3.67
2022-10-26T23:47:13.807Z,3.72
2022-10-26T23:49:42.053Z,5.05
2022-10-26T23:52:10.334Z,5.82
2022-10-26T23:54:38.613Z,3.70
2022-10-26T23:57:06.868Z,4.20
2022-10-26T23:59:37.870Z,9.88
